sensor_id;sensor_type;location;lat;lon;timestamp;temperature;humidity
19342;DHT22;9807;48.258;12.690;2024-01-11T00:00:26;-0.60;99.90
19342;DHT22;9807;48.258;12.690;2024-01-11T00:02:52;-0.50;99.90
19342;DHT22;9807;48.258;12.690;2024-01-11T00:05:17;0.00;99.90
19342;DHT22;9807;48.258;12.690;2024-01-11T00:07:43;0.40;99.90
19342;DHT22;9807;48.258;12.690;2024-01-11T00:10:09;0.50;99.90
19342;DHT22;9807;48.258;12.690;2024-01-11T00:12:35;0.60;99.90
19342;DHT22;9807;48.258;12.690;2024-01-11T00:15:00;0.80;99.90
19342;DHT22;9807;48.258;12.690;2024-01-11T00:17:26;0.90;99.90
19342;DHT22;9807;48.258;12.690;2024-01-11T00:19:52;1.10;99.90
19342;DHT22;9807;48.258;12.690;2024-01-11T00:22:18;1.30;99.90
19342;DHT22;9807;48.258;12.690;2024-01-11T00:24:43;1.50;99.90
19342;DHT22;9807;48.258;12.690;2024-01-11T00:27:09;1.60;99.90
19342;DHT22;9807;48.258;12.690;2024-01-11T00:29:37;1.60;99.90
19342;DHT22;9807;48.258;12.690;2024-01-11T00:32:03;1.70;99.90
19342;DHT22;9807;48.258;12.690;2024-01-11T00:34:29;1.80;99.90
19342;DHT22;9807;48.258;12.690;2024-01-11T00:36:56;1.50;99.90
19342;DHT22;9807;48.258;12.690;2024-01-11T00:39:21;1.50;99.90
19342;DHT22;9807;48.258;12.690;2024-01-11T00:41:47;1.50;99.90
19342;DHT22;9807;48.258;12.690;2024-01-11T00:44:12;1.50;99.90
19342;DHT22;9807;48.258;12.690;2024-01-11T00:46:39;1.50;99.90
19342;DHT22;9807;48.258;12.690;2024-01-11T00:49:05;1.50;99.90
19342;DHT22;9807;48.258;12.690;2024-01-11T00:51:31;1.50;99.90
19342;DHT22;9807;48.258;12.690;2024-01-11T00:53:56;0.90;99.90
19342;DHT22;9807;48.258;12.690;2024-01-11T00:56:22;0.50;99.90
19342;DHT22;9807;48.258;12.690;2024-01-11T00:58:48;0.80;99.90
19342;DHT22;9807;48.258;12.690;2024-01-11T01:01:13;0.90;99.90
19342;DHT22;9807;48.258;12.690;2024-01-11T01:03:39;0.90;99.90
19342;DHT22;9807;48.258;12.690;2024-01-11T01:06:05;1.10;99.90
19342;DHT22;9807;48.258;12.690;2024-01-11T01:08:31;1.30;99.90
19342;DHT22;9807;48.258;12.690;2024-01-11T01:10:57;1.00;99.90
19342;DHT22;9807;48.258;12.690;2024-01-11T01:13:23;1.10;99.90
19342;DHT22;9807;48.258;12.690;2024-01-11T01:15:48;1.30;99.90
19342;DHT22;9807;48.258;12.690;2024-01-11T01:18:14;1.20;99.90
19342;DHT22;9807;48.258;12.690;2024-01-11T01:20:40;0.80;99.90
19342;DHT22;9807;48.258;12.690;2024-01-11T01:23:06;-0.10;99.90
19342;DHT22;9807;48.258;12.690;2024-01-11T01:25:31;0.00;99.90
19342;DHT22;9807;48.258;12.690;2024-01-11T01:28:00;0.10;99.90
19342;DHT22;9807;48.258;12.690;2024-01-11T01:30:26;-0.30;99.90
19342;DHT22;9807;48.258;12.690;2024-01-11T01:32:53;-0.70;99.90
19342;DHT22;9807;48.258;12.690;2024-01-11T01:35:18;-0.60;99.90
19342;DHT22;9807;48.258;12.690;2024-01-11T01:37:44;-1.10;99.90
19342;DHT22;9807;48.258;12.690;2024-01-11T01:40:10;-1.80;99.90
19342;DHT22;9807;48.258;12.690;2024-01-11T01:42:40;-2.30;99.90
19342;DHT22;9807;48.258;12.690;2024-01-11T01:45:06;-2.70;99.90
19342;DHT22;9807;48.258;12.690;2024-01-11T01:47:32;-2.40;99.90
19342;DHT22;9807;48.258;12.690;2024-01-11T01:49:58;-1.80;99.90
19342;DHT22;9807;48.258;12.690;2024-01-11T01:52:27;-1.50;99.90
19342;DHT22;9807;48.258;12.690;2024-01-11T01:54:52;-1.60;99.90
19342;DHT22;9807;48.258;12.690;2024-01-11T01:57:19;-1.90;99.90
19342;DHT22;9807;48.258;12.690;2024-01-11T01:59:45;-2.40;99.90
19342;DHT22;9807;48.258;12.690;2024-01-11T02:02:12;-2.40;99.90
19342;DHT22;9807;48.258;12.690;2024-01-11T02:04:38;-1.90;99.90
19342;DHT22;9807;48.258;12.690;2024-01-11T02:07:04;-1.60;99.90
19342;DHT22;9807;48.258;12.690;2024-01-11T02:09:31;-0.90;99.90
19342;DHT22;9807;48.258;12.690;2024-01-11T02:11:58;-0.70;99.90
19342;DHT22;9807;48.258;12.690;2024-01-11T02:14:26;-0.60;99.90
19342;DHT22;9807;48.258;12.690;2024-01-11T02:16:52;-0.40;99.90
19342;DHT22;9807;48.258;12.690;2024-01-11T02:19:19;-0.10;99.90
19342;DHT22;9807;48.258;12.690;2024-01-11T02:21:46;-0.10;99.90
19342;DHT22;9807;48.258;12.690;2024-01-11T02:24:14;0.20;99.90
19342;DHT22;9807;48.258;12.690;2024-01-11T02:27:02;0.40;99.90
19342;DHT22;9807;48.258;12.690;2024-01-11T02:29:29;0.60;99.90
19342;DHT22;9807;48.258;12.690;2024-01-11T02:31:56;0.90;99.90
19342;DHT22;9807;48.258;12.690;2024-01-11T02:34:26;1.00;99.90
19342;DHT22;9807;48.258;12.690;2024-01-11T02:36:56;1.10;99.90
19342;DHT22;9807;48.258;12.690;2024-01-11T02:39:23;0.90;99.90
19342;DHT22;9807;48.258;12.690;2024-01-11T02:41:50;0.70;99.90
19342;DHT22;9807;48.258;12.690;2024-01-11T02:44:16;0.90;99.90
19342;DHT22;9807;48.258;12.690;2024-01-11T02:46:42;1.00;99.90
19342;DHT22;9807;48.258;12.690;2024-01-11T02:49:08;1.10;99.90
19342;DHT22;9807;48.258;12.690;2024-01-11T02:51:34;0.90;99.90
19342;DHT22;9807;48.258;12.690;2024-01-11T02:53:59;0.90;99.90
19342;DHT22;9807;48.258;12.690;2024-01-11T02:56:25;0.90;99.90
19342;DHT22;9807;48.258;12.690;2024-01-11T02:58:51;0.90;99.90
19342;DHT22;9807;48.258;12.690;2024-01-11T03:01:16;1.00;99.90
19342;DHT22;9807;48.258;12.690;2024-01-11T03:03:42;1.00;99.90
19342;DHT22;9807;48.258;12.690;2024-01-11T03:06:07;1.10;99.90
19342;DHT22;9807;48.258;12.690;2024-01-11T03:08:33;1.10;99.90
19342;DHT22;9807;48.258;12.690;2024-01-11T03:10:59;1.20;99.90
19342;DHT22;9807;48.258;12.690;2024-01-11T03:13:25;0.90;99.90
19342;DHT22;9807;48.258;12.690;2024-01-11T03:15:51;0.40;99.90
19342;DHT22;9807;48.258;12.690;2024-01-11T03:18:16;0.20;99.90
19342;DHT22;9807;48.258;12.690;2024-01-11T03:20:42;-0.20;99.90
19342;DHT22;9807;48.258;12.690;2024-01-11T03:23:08;-0.30;99.90
19342;DHT22;9807;48.258;12.690;2024-01-11T03:25:33;-0.20;99.90
19342;DHT22;9807;48.258;12.690;2024-01-11T03:27:59;0.20;99.90
19342;DHT22;9807;48.258;12.690;2024-01-11T03:30:26;0.30;99.90
19342;DHT22;9807;48.258;12.690;2024-01-11T03:32:51;0.50;99.90
19342;DHT22;9807;48.258;12.690;2024-01-11T03:35:18;0.70;99.90
19342;DHT22;9807;48.258;12.690;2024-01-11T03:37:44;0.90;99.90
19342;DHT22;9807;48.258;12.690;2024-01-11T03:40:11;1.20;99.90
19342;DHT22;9807;48.258;12.690;2024-01-11T03:42:36;1.40;99.90
19342;DHT22;9807;48.258;12.690;2024-01-11T03:45:03;1.40;99.90
19342;DHT22;9807;48.258;12.690;2024-01-11T03:47:29;0.70;99.90
19342;DHT22;9807;48.258;12.690;2024-01-11T03:49:55;0.20;99.90
19342;DHT22;9807;48.258;12.690;2024-01-11T03:52:21;0.10;99.90
19342;DHT22;9807;48.258;12.690;2024-01-11T03:54:46;0.50;99.90
19342;DHT22;9807;48.258;12.690;2024-01-11T03:57:12;0.90;99.90
19342;DHT22;9807;48.258;12.690;2024-01-11T03:59:38;1.20;99.90
19342;DHT22;9807;48.258;12.690;2024-01-11T04:02:03;1.30;99.90
19342;DHT22;9807;48.258;12.690;2024-01-11T04:04:29;1.00;99.90
19342;DHT22;9807;48.258;12.690;2024-01-11T04:06:55;0.10;99.90
19342;DHT22;9807;48.258;12.690;2024-01-11T04:09:21;-0.90;99.90
19342;DHT22;9807;48.258;12.690;2024-01-11T04:11:46;-1.90;99.90
19342;DHT22;9807;48.258;12.690;2024-01-11T04:14:12;-2.10;99.90
19342;DHT22;9807;48.258;12.690;2024-01-11T04:16:44;-2.10;99.90
19342;DHT22;9807;48.258;12.690;2024-01-11T04:19:10;-2.10;99.90
19342;DHT22;9807;48.258;12.690;2024-01-11T04:21:36;-1.90;99.90
19342;DHT22;9807;48.258;12.690;2024-01-11T04:24:04;-1.30;99.90
19342;DHT22;9807;48.258;12.690;2024-01-11T04:26:33;-0.70;99.90
19342;DHT22;9807;48.258;12.690;2024-01-11T04:28:59;-0.40;99.90
19342;DHT22;9807;48.258;12.690;2024-01-11T04:31:28;-0.70;99.90
19342;DHT22;9807;48.258;12.690;2024-01-11T04:33:54;-0.80;99.90
19342;DHT22;9807;48.258;12.690;2024-01-11T04:36:20;-0.70;99.90
19342;DHT22;9807;48.258;12.690;2024-01-11T04:38:45;-1.00;99.90
19342;DHT22;9807;48.258;12.690;2024-01-11T04:41:12;-1.00;99.90
19342;DHT22;9807;48.258;12.690;2024-01-11T04:43:38;-1.30;99.90
19342;DHT22;9807;48.258;12.690;2024-01-11T04:46:22;-1.30;99.90
19342;DHT22;9807;48.258;12.690;2024-01-11T04:48:48;-1.70;99.90
19342;DHT22;9807;48.258;12.690;2024-01-11T04:51:15;-2.40;99.90
19342;DHT22;9807;48.258;12.690;2024-01-11T04:53:41;-2.40;99.90
19342;DHT22;9807;48.258;12.690;2024-01-11T04:56:08;-2.80;99.90
19342;DHT22;9807;48.258;12.690;2024-01-11T04:58:35;-3.20;99.90
19342;DHT22;9807;48.258;12.690;2024-01-11T05:01:02;-2.80;99.90
19342;DHT22;9807;48.258;12.690;2024-01-11T05:03:28;-2.20;99.90
19342;DHT22;9807;48.258;12.690;2024-01-11T05:05:53;-1.60;99.90
19342;DHT22;9807;48.258;12.690;2024-01-11T05:08:19;-2.10;99.90
19342;DHT22;9807;48.258;12.690;2024-01-11T05:10:44;-2.40;99.90
19342;DHT22;9807;48.258;12.690;2024-01-11T05:13:10;-2.80;99.90
19342;DHT22;9807;48.258;12.690;2024-01-11T05:15:36;-3.20;99.90
19342;DHT22;9807;48.258;12.690;2024-01-11T05:18:02;-3.00;99.90
19342;DHT22;9807;48.258;12.690;2024-01-11T05:20:27;-3.10;99.90
19342;DHT22;9807;48.258;12.690;2024-01-11T05:22:53;-3.00;99.90
19342;DHT22;9807;48.258;12.690;2024-01-11T05:25:19;-2.70;99.90
19342;DHT22;9807;48.258;12.690;2024-01-11T05:27:45;-2.00;99.90
19342;DHT22;9807;48.258;12.690;2024-01-11T05:30:11;-1.50;99.90
19342;DHT22;9807;48.258;12.690;2024-01-11T05:32:36;-0.80;99.90
19342;DHT22;9807;48.258;12.690;2024-01-11T05:35:02;-0.60;99.90
19342;DHT22;9807;48.258;12.690;2024-01-11T05:37:28;-0.30;99.90
19342;DHT22;9807;48.258;12.690;2024-01-11T05:39:53;-0.50;99.90
19342;DHT22;9807;48.258;12.690;2024-01-11T05:42:20;-0.10;99.90
19342;DHT22;9807;48.258;12.690;2024-01-11T05:44:45;0.30;99.90
19342;DHT22;9807;48.258;12.690;2024-01-11T05:47:11;0.50;99.90
19342;DHT22;9807;48.258;12.690;2024-01-11T05:49:36;0.50;99.90
19342;DHT22;9807;48.258;12.690;2024-01-11T05:52:02;0.00;99.90
19342;DHT22;9807;48.258;12.690;2024-01-11T05:54:28;-0.20;99.90
19342;DHT22;9807;48.258;12.690;2024-01-11T05:56:54;-0.50;99.90
19342;DHT22;9807;48.258;12.690;2024-01-11T05:59:23;-0.40;99.90
19342;DHT22;9807;48.258;12.690;2024-01-11T06:01:48;-0.10;99.90
19342;DHT22;9807;48.258;12.690;2024-01-11T06:04:14;0.00;99.90
19342;DHT22;9807;48.258;12.690;2024-01-11T06:06:40;0.10;99.90
19342;DHT22;9807;48.258;12.690;2024-01-11T06:09:06;0.10;99.90
19342;DHT22;9807;48.258;12.690;2024-01-11T06:11:32;-0.10;99.90
19342;DHT22;9807;48.258;12.690;2024-01-11T06:13:57;-0.10;99.90
19342;DHT22;9807;48.258;12.690;2024-01-11T06:16:23;0.20;99.90
19342;DHT22;9807;48.258;12.690;2024-01-11T06:18:49;0.50;99.90
19342;DHT22;9807;48.258;12.690;2024-01-11T06:21:15;0.60;99.90
19342;DHT22;9807;48.258;12.690;2024-01-11T06:23:43;0.70;99.90
19342;DHT22;9807;48.258;12.690;2024-01-11T06:26:08;0.90;99.90
19342;DHT22;9807;48.258;12.690;2024-01-11T06:28:34;1.00;99.90
19342;DHT22;9807;48.258;12.690;2024-01-11T06:31:00;1.10;99.90
19342;DHT22;9807;48.258;12.690;2024-01-11T06:33:28;0.80;99.90
19342;DHT22;9807;48.258;12.690;2024-01-11T06:35:54;0.80;99.90
19342;DHT22;9807;48.258;12.690;2024-01-11T06:38:20;0.70;99.90
19342;DHT22;9807;48.258;12.690;2024-01-11T06:40:45;0.70;99.90
19342;DHT22;9807;48.258;12.690;2024-01-11T06:43:11;0.30;99.90
19342;DHT22;9807;48.258;12.690;2024-01-11T06:45:37;0.00;99.90
19342;DHT22;9807;48.258;12.690;2024-01-11T06:48:02;-0.10;99.90
19342;DHT22;9807;48.258;12.690;2024-01-11T06:50:28;0.00;99.90
19342;DHT22;9807;48.258;12.690;2024-01-11T06:52:54;-0.60;99.90
19342;DHT22;9807;48.258;12.690;2024-01-11T06:55:19;-1.20;99.90
19342;DHT22;9807;48.258;12.690;2024-01-11T06:57:48;-1.20;99.90
19342;DHT22;9807;48.258;12.690;2024-01-11T07:00:14;-1.50;99.90
19342;DHT22;9807;48.258;12.690;2024-01-11T07:02:39;-1.60;99.90
19342;DHT22;9807;48.258;12.690;2024-01-11T07:05:06;-2.00;99.90
19342;DHT22;9807;48.258;12.690;2024-01-11T07:07:32;-1.80;99.90
19342;DHT22;9807;48.258;12.690;2024-01-11T07:10:00;-1.70;99.90
19342;DHT22;9807;48.258;12.690;2024-01-11T07:12:25;-1.90;99.90
19342;DHT22;9807;48.258;12.690;2024-01-11T07:14:51;-1.80;99.90
19342;DHT22;9807;48.258;12.690;2024-01-11T07:17:17;-2.00;99.90
19342;DHT22;9807;48.258;12.690;2024-01-11T07:19:43;-2.50;99.90
19342;DHT22;9807;48.258;12.690;2024-01-11T07:22:09;-3.30;99.90
19342;DHT22;9807;48.258;12.690;2024-01-11T07:24:34;-3.20;99.90
19342;DHT22;9807;48.258;12.690;2024-01-11T07:27:06;-3.00;99.90
19342;DHT22;9807;48.258;12.690;2024-01-11T07:29:33;-2.40;99.90
19342;DHT22;9807;48.258;12.690;2024-01-11T07:32:00;-2.00;99.90
19342;DHT22;9807;48.258;12.690;2024-01-11T07:34:26;-1.80;99.90
19342;DHT22;9807;48.258;12.690;2024-01-11T07:36:52;-1.60;99.90
19342;DHT22;9807;48.258;12.690;2024-01-11T07:39:19;-1.60;99.90
19342;DHT22;9807;48.258;12.690;2024-01-11T07:41:45;-1.70;99.90
19342;DHT22;9807;48.258;12.690;2024-01-11T07:44:10;-3.10;99.90
19342;DHT22;9807;48.258;12.690;2024-01-11T07:46:36;-3.80;99.90
19342;DHT22;9807;48.258;12.690;2024-01-11T07:49:05;-4.50;99.90
19342;DHT22;9807;48.258;12.690;2024-01-11T07:51:31;-5.20;99.90
19342;DHT22;9807;48.258;12.690;2024-01-11T07:53:56;-5.50;99.90
19342;DHT22;9807;48.258;12.690;2024-01-11T07:56:22;-5.70;99.90
19342;DHT22;9807;48.258;12.690;2024-01-11T07:58:48;-5.80;99.90
19342;DHT22;9807;48.258;12.690;2024-01-11T08:01:15;-5.90;99.90
19342;DHT22;9807;48.258;12.690;2024-01-11T08:03:41;-5.30;99.90
19342;DHT22;9807;48.258;12.690;2024-01-11T08:06:07;-4.40;99.90
19342;DHT22;9807;48.258;12.690;2024-01-11T08:08:34;-3.40;99.90
19342;DHT22;9807;48.258;12.690;2024-01-11T08:11:00;-2.50;99.90
19342;DHT22;9807;48.258;12.690;2024-01-11T08:13:25;-2.20;99.90
19342;DHT22;9807;48.258;12.690;2024-01-11T08:15:52;-2.00;99.90
19342;DHT22;9807;48.258;12.690;2024-01-11T08:18:19;-2.00;99.90
19342;DHT22;9807;48.258;12.690;2024-01-11T08:20:44;-1.70;99.90
19342;DHT22;9807;48.258;12.690;2024-01-11T08:23:10;-1.40;99.90
19342;DHT22;9807;48.258;12.690;2024-01-11T08:25:36;-1.00;99.90
19342;DHT22;9807;48.258;12.690;2024-01-11T08:28:02;-0.60;99.90
19342;DHT22;9807;48.258;12.690;2024-01-11T08:30:28;-0.40;99.90
19342;DHT22;9807;48.258;12.690;2024-01-11T08:32:54;-0.80;99.90
19342;DHT22;9807;48.258;12.690;2024-01-11T08:35:21;-1.20;99.90
19342;DHT22;9807;48.258;12.690;2024-01-11T08:37:46;-1.00;99.90
19342;DHT22;9807;48.258;12.690;2024-01-11T08:40:12;-1.10;99.90
19342;DHT22;9807;48.258;12.690;2024-01-11T08:42:38;-0.90;99.90
19342;DHT22;9807;48.258;12.690;2024-01-11T08:45:06;-0.40;99.90
19342;DHT22;9807;48.258;12.690;2024-01-11T08:47:33;-0.40;99.90
19342;DHT22;9807;48.258;12.690;2024-01-11T08:50:00;-0.60;99.90
19342;DHT22;9807;48.258;12.690;2024-01-11T08:52:26;-0.30;99.90
19342;DHT22;9807;48.258;12.690;2024-01-11T08:54:52;-1.00;99.90
19342;DHT22;9807;48.258;12.690;2024-01-11T08:57:17;-1.70;99.90
19342;DHT22;9807;48.258;12.690;2024-01-11T08:59:43;-1.40;99.90
19342;DHT22;9807;48.258;12.690;2024-01-11T09:02:09;-1.10;99.90
19342;DHT22;9807;48.258;12.690;2024-01-11T09:04:36;-1.50;99.90
19342;DHT22;9807;48.258;12.690;2024-01-11T09:07:02;-2.20;99.90
19342;DHT22;9807;48.258;12.690;2024-01-11T09:09:27;-2.20;99.90
19342;DHT22;9807;48.258;12.690;2024-01-11T09:11:53;-1.70;99.90
19342;DHT22;9807;48.258;12.690;2024-01-11T09:14:19;-1.20;99.90
19342;DHT22;9807;48.258;12.690;2024-01-11T09:16:44;-0.90;99.90
19342;DHT22;9807;48.258;12.690;2024-01-11T09:19:11;-0.70;99.90
19342;DHT22;9807;48.258;12.690;2024-01-11T09:21:37;-0.70;99.90
19342;DHT22;9807;48.258;12.690;2024-01-11T09:24:03;-0.40;99.90
19342;DHT22;9807;48.258;12.690;2024-01-11T09:26:31;-0.30;99.90
19342;DHT22;9807;48.258;12.690;2024-01-11T09:28:57;0.00;99.90
19342;DHT22;9807;48.258;12.690;2024-01-11T09:31:23;0.30;99.90
19342;DHT22;9807;48.258;12.690;2024-01-11T09:33:48;0.30;99.90
19342;DHT22;9807;48.258;12.690;2024-01-11T09:36:15;0.40;99.90
19342;DHT22;9807;48.258;12.690;2024-01-11T09:38:40;0.00;99.90
19342;DHT22;9807;48.258;12.690;2024-01-11T09:41:08;0.00;99.90
19342;DHT22;9807;48.258;12.690;2024-01-11T09:43:35;0.10;99.90
19342;DHT22;9807;48.258;12.690;2024-01-11T09:46:05;0.50;99.90
19342;DHT22;9807;48.258;12.690;2024-01-11T09:48:36;0.20;99.90
19342;DHT22;9807;48.258;12.690;2024-01-11T09:51:04;-0.80;99.90
19342;DHT22;9807;48.258;12.690;2024-01-11T09:53:33;-2.00;99.90
19342;DHT22;9807;48.258;12.690;2024-01-11T09:56:00;-2.00;99.90
19342;DHT22;9807;48.258;12.690;2024-01-11T09:58:26;-1.60;99.90
19342;DHT22;9807;48.258;12.690;2024-01-11T10:00:56;-0.90;99.90
19342;DHT22;9807;48.258;12.690;2024-01-11T10:03:25;-0.40;99.90
19342;DHT22;9807;48.258;12.690;2024-01-11T10:05:54;0.10;99.90
19342;DHT22;9807;48.258;12.690;2024-01-11T10:08:22;0.10;99.90
19342;DHT22;9807;48.258;12.690;2024-01-11T10:10:48;0.20;99.90
19342;DHT22;9807;48.258;12.690;2024-01-11T10:13:15;0.10;99.90
19342;DHT22;9807;48.258;12.690;2024-01-11T10:15:42;-1.80;99.90
19342;DHT22;9807;48.258;12.690;2024-01-11T10:18:07;-2.20;99.90
19342;DHT22;9807;48.258;12.690;2024-01-11T10:20:33;-2.50;99.90
19342;DHT22;9807;48.258;12.690;2024-01-11T10:23:02;-3.00;99.90
19342;DHT22;9807;48.258;12.690;2024-01-11T10:25:28;-3.20;99.90
19342;DHT22;9807;48.258;12.690;2024-01-11T10:27:54;-3.50;99.90
19342;DHT22;9807;48.258;12.690;2024-01-11T10:30:20;-3.60;99.90
19342;DHT22;9807;48.258;12.690;2024-01-11T10:32:49;-3.60;99.90
19342;DHT22;9807;48.258;12.690;2024-01-11T10:35:15;-3.30;99.90
19342;DHT22;9807;48.258;12.690;2024-01-11T10:37:49;-2.60;99.90
19342;DHT22;9807;48.258;12.690;2024-01-11T10:40:16;-1.80;99.90
19342;DHT22;9807;48.258;12.690;2024-01-11T10:42:44;-2.30;99.90
19342;DHT22;9807;48.258;12.690;2024-01-11T10:45:15;-3.10;99.90
19342;DHT22;9807;48.258;12.690;2024-01-11T10:47:55;-3.20;99.90
19342;DHT22;9807;48.258;12.690;2024-01-11T10:50:23;-3.20;99.90
19342;DHT22;9807;48.258;12.690;2024-01-11T10:55:55;-1.80;99.90
19342;DHT22;9807;48.258;12.690;2024-01-11T10:58:22;-0.80;99.90
19342;DHT22;9807;48.258;12.690;2024-01-11T11:00:50;-0.30;99.90
19342;DHT22;9807;48.258;12.690;2024-01-11T11:03:18;0.00;99.90
19342;DHT22;9807;48.258;12.690;2024-01-11T11:05:45;0.20;99.90
19342;DHT22;9807;48.258;12.690;2024-01-11T11:08:14;0.00;99.90
19342;DHT22;9807;48.258;12.690;2024-01-11T11:10:40;-0.60;99.90
19342;DHT22;9807;48.258;12.690;2024-01-11T11:13:08;-0.60;99.90
19342;DHT22;9807;48.258;12.690;2024-01-11T11:15:35;-0.30;99.90
19342;DHT22;9807;48.258;12.690;2024-01-11T11:18:03;0.30;99.90
19342;DHT22;9807;48.258;12.690;2024-01-11T11:20:34;0.50;99.90
19342;DHT22;9807;48.258;12.690;2024-01-11T11:23:07;0.80;99.90
19342;DHT22;9807;48.258;12.690;2024-01-11T11:25:34;1.20;99.90
19342;DHT22;9807;48.258;12.690;2024-01-11T11:28:00;1.20;99.90
19342;DHT22;9807;48.258;12.690;2024-01-11T11:30:32;-0.40;99.90
19342;DHT22;9807;48.258;12.690;2024-01-11T11:33:08;-1.80;99.90
19342;DHT22;9807;48.258;12.690;2024-01-11T11:35:35;-2.70;99.90
19342;DHT22;9807;48.258;12.690;2024-01-11T11:38:01;-3.30;99.90
19342;DHT22;9807;48.258;12.690;2024-01-11T11:40:38;-3.70;99.90
19342;DHT22;9807;48.258;12.690;2024-01-11T11:43:09;-3.80;99.90
19342;DHT22;9807;48.258;12.690;2024-01-11T11:45:35;-3.50;99.90
19342;DHT22;9807;48.258;12.690;2024-01-11T11:48:05;-2.80;99.90
19342;DHT22;9807;48.258;12.690;2024-01-11T11:50:47;-2.00;99.90
19342;DHT22;9807;48.258;12.690;2024-01-11T11:53:26;-1.00;99.90
19342;DHT22;9807;48.258;12.690;2024-01-11T11:55:52;-0.70;99.90
19342;DHT22;9807;48.258;12.690;2024-01-11T11:58:17;-1.00;99.90
19342;DHT22;9807;48.258;12.690;2024-01-11T12:00:44;-1.10;99.90
19342;DHT22;9807;48.258;12.690;2024-01-11T12:03:10;-0.70;99.90
19342;DHT22;9807;48.258;12.690;2024-01-11T12:05:38;-0.40;99.90
19342;DHT22;9807;48.258;12.690;2024-01-11T12:08:04;-0.60;99.90
19342;DHT22;9807;48.258;12.690;2024-01-11T12:10:30;-0.10;99.90
19342;DHT22;9807;48.258;12.690;2024-01-11T12:12:56;-0.30;99.90
19342;DHT22;9807;48.258;12.690;2024-01-11T12:15:22;-1.20;99.90
19342;DHT22;9807;48.258;12.690;2024-01-11T12:17:47;-1.90;99.90
19342;DHT22;9807;48.258;12.690;2024-01-11T12:20:13;-2.10;99.90
19342;DHT22;9807;48.258;12.690;2024-01-11T12:22:39;-1.40;99.90
19342;DHT22;9807;48.258;12.690;2024-01-11T12:25:06;-1.10;99.90
19342;DHT22;9807;48.258;12.690;2024-01-11T12:27:31;-0.50;99.90
19342;DHT22;9807;48.258;12.690;2024-01-11T12:29:57;-0.30;99.90
19342;DHT22;9807;48.258;12.690;2024-01-11T12:32:23;-0.30;99.90
19342;DHT22;9807;48.258;12.690;2024-01-11T12:34:49;0.20;99.90
19342;DHT22;9807;48.258;12.690;2024-01-11T12:37:15;0.50;99.90
19342;DHT22;9807;48.258;12.690;2024-01-11T12:39:41;0.90;99.90
19342;DHT22;9807;48.258;12.690;2024-01-11T12:42:07;1.00;99.90
19342;DHT22;9807;48.258;12.690;2024-01-11T12:44:34;1.00;99.90
19342;DHT22;9807;48.258;12.690;2024-01-11T12:47:00;0.90;99.90
19342;DHT22;9807;48.258;12.690;2024-01-11T12:49:26;0.90;99.90
19342;DHT22;9807;48.258;12.690;2024-01-11T12:51:52;0.80;99.90
19342;DHT22;9807;48.258;12.690;2024-01-11T12:54:17;0.30;99.90
19342;DHT22;9807;48.258;12.690;2024-01-11T12:56:45;0.30;99.90
19342;DHT22;9807;48.258;12.690;2024-01-11T12:59:11;-0.70;99.90
19342;DHT22;9807;48.258;12.690;2024-01-11T13:01:38;-0.70;99.90
19342;DHT22;9807;48.258;12.690;2024-01-11T13:04:04;-0.70;99.90
19342;DHT22;9807;48.258;12.690;2024-01-11T13:06:32;-0.70;99.90
19342;DHT22;9807;48.258;12.690;2024-01-11T13:09:03;-0.10;99.90
19342;DHT22;9807;48.258;12.690;2024-01-11T13:11:30;0.30;99.90
19342;DHT22;9807;48.258;12.690;2024-01-11T13:13:56;0.60;99.90
19342;DHT22;9807;48.258;12.690;2024-01-11T13:16:24;0.90;99.90
19342;DHT22;9807;48.258;12.690;2024-01-11T13:18:50;1.10;99.90
19342;DHT22;9807;48.258;12.690;2024-01-11T13:21:16;1.10;99.90
19342;DHT22;9807;48.258;12.690;2024-01-11T13:23:42;1.10;99.90
19342;DHT22;9807;48.258;12.690;2024-01-11T13:26:08;1.10;99.90
19342;DHT22;9807;48.258;12.690;2024-01-11T13:28:34;1.20;99.90
19342;DHT22;9807;48.258;12.690;2024-01-11T13:31:01;1.50;99.90
19342;DHT22;9807;48.258;12.690;2024-01-11T13:33:27;1.50;99.90
19342;DHT22;9807;48.258;12.690;2024-01-11T13:35:54;1.10;99.90
19342;DHT22;9807;48.258;12.690;2024-01-11T13:38:19;1.10;99.90
19342;DHT22;9807;48.258;12.690;2024-01-11T13:40:45;1.20;99.90
19342;DHT22;9807;48.258;12.690;2024-01-11T13:43:11;1.30;99.90
19342;DHT22;9807;48.258;12.690;2024-01-11T13:45:37;1.50;99.90
19342;DHT22;9807;48.258;12.690;2024-01-11T13:48:04;1.20;99.90
19342;DHT22;9807;48.258;12.690;2024-01-11T13:50:30;0.90;99.90
19342;DHT22;9807;48.258;12.690;2024-01-11T13:52:55;1.00;99.90
19342;DHT22;9807;48.258;12.690;2024-01-11T13:55:21;1.20;99.90
19342;DHT22;9807;48.258;12.690;2024-01-11T13:57:48;1.30;99.90
19342;DHT22;9807;48.258;12.690;2024-01-11T14:00:15;1.30;99.90
19342;DHT22;9807;48.258;12.690;2024-01-11T14:02:43;1.50;99.90
19342;DHT22;9807;48.258;12.690;2024-01-11T14:05:10;1.30;99.90
19342;DHT22;9807;48.258;12.690;2024-01-11T14:07:38;0.30;99.90
19342;DHT22;9807;48.258;12.690;2024-01-11T14:10:05;-1.00;99.90
19342;DHT22;9807;48.258;12.690;2024-01-11T14:12:31;-1.20;99.90
19342;DHT22;9807;48.258;12.690;2024-01-11T14:14:57;-1.30;99.90
19342;DHT22;9807;48.258;12.690;2024-01-11T14:17:22;-1.20;99.90
19342;DHT22;9807;48.258;12.690;2024-01-11T14:19:48;-0.80;99.90
19342;DHT22;9807;48.258;12.690;2024-01-11T14:22:14;-0.10;99.90
19342;DHT22;9807;48.258;12.690;2024-01-11T14:24:39;0.20;99.90
19342;DHT22;9807;48.258;12.690;2024-01-11T14:27:06;0.70;99.90
19342;DHT22;9807;48.258;12.690;2024-01-11T14:29:31;0.90;99.90
19342;DHT22;9807;48.258;12.690;2024-01-11T14:31:57;1.00;99.90
19342;DHT22;9807;48.258;12.690;2024-01-11T14:34:23;1.10;99.90
19342;DHT22;9807;48.258;12.690;2024-01-11T14:36:49;1.10;99.90
19342;DHT22;9807;48.258;12.690;2024-01-11T14:39:15;1.30;99.90
19342;DHT22;9807;48.258;12.690;2024-01-11T14:41:41;1.40;99.90
19342;DHT22;9807;48.258;12.690;2024-01-11T14:44:06;1.30;99.90
19342;DHT22;9807;48.258;12.690;2024-01-11T14:46:32;1.20;99.90
19342;DHT22;9807;48.258;12.690;2024-01-11T14:48:59;1.30;99.90
19342;DHT22;9807;48.258;12.690;2024-01-11T14:51:25;1.40;99.90
19342;DHT22;9807;48.258;12.690;2024-01-11T14:53:54;1.40;99.90
19342;DHT22;9807;48.258;12.690;2024-01-11T14:56:20;1.50;99.90
19342;DHT22;9807;48.258;12.690;2024-01-11T14:58:46;1.30;99.90
19342;DHT22;9807;48.258;12.690;2024-01-11T15:01:12;1.30;99.90
19342;DHT22;9807;48.258;12.690;2024-01-11T15:03:39;1.50;99.90
19342;DHT22;9807;48.258;12.690;2024-01-11T15:06:05;1.60;99.90
19342;DHT22;9807;48.258;12.690;2024-01-11T15:08:30;1.60;99.90
19342;DHT22;9807;48.258;12.690;2024-01-11T15:10:56;1.70;99.90
19342;DHT22;9807;48.258;12.690;2024-01-11T15:13:22;1.50;99.90
19342;DHT22;9807;48.258;12.690;2024-01-11T15:15:48;1.70;99.90
19342;DHT22;9807;48.258;12.690;2024-01-11T15:18:14;1.00;99.90
19342;DHT22;9807;48.258;12.690;2024-01-11T15:20:39;0.50;99.90
19342;DHT22;9807;48.258;12.690;2024-01-11T15:23:05;0.60;99.90
19342;DHT22;9807;48.258;12.690;2024-01-11T15:25:31;0.60;99.90
19342;DHT22;9807;48.258;12.690;2024-01-11T15:27:56;0.40;99.90
19342;DHT22;9807;48.258;12.690;2024-01-11T15:30:22;-0.50;99.90
19342;DHT22;9807;48.258;12.690;2024-01-11T15:32:48;-0.90;99.90
19342;DHT22;9807;48.258;12.690;2024-01-11T15:35:14;-0.80;99.90